Time;durP1;ratioP1;P1;durP2;ratioP2;P2;SDS_P1;SDS_P2;PMS_P1;PMS_P2;Temp;Humidity;BMP_temperature;BMP_pressure;BME280_temperature;BME280_humidity;BME280_pressure;Samples;Min_cycle;Max_cycle;Signal;HPM_P1;HPM_P2
2023/04/16 00:02:06;;;;;;;30.83;20.33;;;;;;;;;;5007802;28;20025;-76
2023/04/16 00:04:32;;;;;;;28.83;21.63;;;;;;;;;;5015368;28;20047;-75
2023/04/16 00:06:57;;;;;;;26.85;18.83;;;;;;;;;;5011490;28;20486;-75
2023/04/16 00:09:22;;;;;;;55.08;39.80;;;;;;;;;;5001620;28;20360;-75
2023/04/16 00:11:48;;;;;;;54.70;41.95;;;;;;;;;;5010302;28;20033;-75
2023/04/16 00:14:13;;;;;;;54.15;40.67;;;;;;;;;;5011513;28;20047;-75
2023/04/16 00:16:39;;;;;;;61.40;42.63;;;;;;;;;;5009379;28;20033;-74
2023/04/16 00:19:04;;;;;;;56.55;38.55;;;;;;;;;;5007306;28;20463;-75
2023/04/16 00:21:30;;;;;;;84.43;56.13;;;;;;;;;;5003994;28;20021;-74
2023/04/16 00:23:55;;;;;;;60.45;40.83;;;;;;;;;;5010675;28;20519;-75
2023/04/16 00:26:21;;;;;;;49.22;34.20;;;;;;;;;;5008596;28;20034;-75
2023/04/16 00:28:46;;;;;;;45.30;31.58;;;;;;;;;;5010654;28;20145;-75
2023/04/16 00:31:11;;;;;;;79.00;50.88;;;;;;;;;;5011194;28;20037;-75
2023/04/16 00:33:37;;;;;;;132.90;87.43;;;;;;;;;;5010015;28;20585;-74
2023/04/16 00:36:02;;;;;;;164.02;103.60;;;;;;;;;;5007896;28;20158;-74
2023/04/16 00:38:29;;;;;;;78.97;51.97;;;;;;;;;;5002972;28;20028;-74
2023/04/16 00:40:57;;;;;;;37.22;26.33;;;;;;;;;;5008308;28;20025;-74
2023/04/16 00:43:24;;;;;;;25.98;18.13;;;;;;;;;;5011665;28;20080;-73
2023/04/16 00:45:49;;;;;;;18.98;13.68;;;;;;;;;;5012835;28;20030;-73
2023/04/16 00:48:15;;;;;;;19.73;11.68;;;;;;;;;;5010263;28;20030;-73
2023/04/16 00:50:40;;;;;;;12.65;9.20;;;;;;;;;;5010482;28;20018;-73
2023/04/16 00:53:06;;;;;;;13.25;8.40;;;;;;;;;;5009476;28;20104;-74
2023/04/16 00:55:31;;;;;;;22.55;14.23;;;;;;;;;;5006936;28;20061;-73
2023/04/16 00:57:56;;;;;;;33.83;22.00;;;;;;;;;;5007510;28;20431;-73
2023/04/16 01:00:22;;;;;;;42.22;27.55;;;;;;;;;;5006638;28;20042;-73
2023/04/16 01:02:47;;;;;;;31.35;21.65;;;;;;;;;;5007593;28;20104;-74
2023/04/16 01:05:13;;;;;;;39.13;27.58;;;;;;;;;;5010478;28;20025;-73
2023/04/16 01:07:38;;;;;;;38.20;26.27;;;;;;;;;;5011041;28;20441;-73
2023/04/16 01:10:03;;;;;;;33.08;23.40;;;;;;;;;;5012026;28;20497;-74
2023/04/16 01:12:29;;;;;;;34.22;23.48;;;;;;;;;;5004372;28;20508;-75
2023/04/16 01:14:55;;;;;;;31.80;21.55;;;;;;;;;;5013209;28;20333;-73
2023/04/16 01:17:20;;;;;;;36.95;26.25;;;;;;;;;;5012677;28;20034;-74
2023/04/16 01:19:45;;;;;;;56.10;38.80;;;;;;;;;;5011632;28;20029;-73
2023/04/16 01:22:11;;;;;;;36.70;25.58;;;;;;;;;;5009498;28;20444;-73
2023/04/16 01:24:36;;;;;;;23.88;17.10;;;;;;;;;;5011058;28;20399;-73
2023/04/16 01:27:02;;;;;;;23.15;17.38;;;;;;;;;;5009058;28;20034;-73
2023/04/16 01:29:27;;;;;;;30.85;24.58;;;;;;;;;;5012675;28;20046;-73
2023/04/16 01:31:53;;;;;;;36.75;27.20;;;;;;;;;;5012246;28;20017;-73
2023/04/16 01:34:18;;;;;;;39.90;27.15;;;;;;;;;;5014732;28;20036;-74
2023/04/16 01:36:44;;;;;;;31.08;23.58;;;;;;;;;;5006724;28;20037;-74
2023/04/16 01:39:12;;;;;;;31.23;24.13;;;;;;;;;;5012671;28;20609;-74
2023/04/16 01:41:38;;;;;;;29.77;22.43;;;;;;;;;;5009789;28;20026;-73
2023/04/16 01:44:03;;;;;;;30.88;21.00;;;;;;;;;;5014464;28;20033;-73
2023/04/16 01:46:32;;;;;;;25.75;18.17;;;;;;;;;;5007032;28;20029;-74
2023/04/16 01:48:57;;;;;;;29.98;19.88;;;;;;;;;;5004766;28;20034;-73
2023/04/16 01:51:23;;;;;;;25.80;17.42;;;;;;;;;;5010557;28;20029;-73
2023/04/16 01:53:49;;;;;;;21.00;14.73;;;;;;;;;;5007280;28;20500;-72
2023/04/16 01:56:14;;;;;;;14.45;9.52;;;;;;;;;;5007205;28;20096;-73
2023/04/16 01:58:41;;;;;;;14.75;8.15;;;;;;;;;;5010638;28;20041;-76
2023/04/16 02:01:07;;;;;;;30.98;20.60;;;;;;;;;;5006887;28;20029;-78
2023/04/16 02:03:32;;;;;;;90.00;61.15;;;;;;;;;;5002575;28;20013;-73
2023/04/16 02:05:57;;;;;;;104.40;71.97;;;;;;;;;;5006977;28;20034;-73
2023/04/16 02:08:23;;;;;;;48.00;33.53;;;;;;;;;;5013128;28;20056;-72
2023/04/16 02:10:49;;;;;;;54.03;36.25;;;;;;;;;;5002071;28;21334;-72
2023/04/16 02:13:15;;;;;;;42.75;29.27;;;;;;;;;;5011667;28;20025;-74
2023/04/16 02:15:43;;;;;;;32.85;22.92;;;;;;;;;;5009493;28;20330;-76
2023/04/16 02:18:09;;;;;;;18.63;13.02;;;;;;;;;;5010955;28;20034;-74
2023/04/16 02:20:35;;;;;;;29.10;19.08;;;;;;;;;;5008867;28;20054;-74
2023/04/16 02:23:00;;;;;;;53.97;36.50;;;;;;;;;;5012872;28;20086;-74
2023/04/16 02:25:26;;;;;;;45.40;30.48;;;;;;;;;;5010729;28;20440;-74
2023/04/16 02:27:51;;;;;;;42.13;29.63;;;;;;;;;;5007936;28;20046;-75
2023/04/16 02:30:16;;;;;;;42.40;29.13;;;;;;;;;;5011498;28;20033;-74
2023/04/16 02:32:42;;;;;;;35.85;27.70;;;;;;;;;;5009139;28;20516;-72
2023/04/16 02:35:07;;;;;;;32.83;23.83;;;;;;;;;;5007112;28;20025;-73
2023/04/16 02:37:33;;;;;;;17.20;13.02;;;;;;;;;;5009955;28;20030;-72
2023/04/16 02:39:58;;;;;;;12.27;7.72;;;;;;;;;;5010183;28;20026;-73
2023/04/16 02:42:23;;;;;;;18.00;12.63;;;;;;;;;;5008585;28;20082;-74
2023/04/16 02:44:49;;;;;;;25.52;20.00;;;;;;;;;;5012009;28;20469;-75
2023/04/16 02:47:14;;;;;;;28.08;19.85;;;;;;;;;;5006288;28;23297;-72
2023/04/16 02:49:39;;;;;;;14.98;10.68;;;;;;;;;;5013503;28;20021;-72
2023/04/16 02:52:05;;;;;;;16.48;10.90;;;;;;;;;;5015400;28;21155;-72
2023/04/16 02:54:30;;;;;;;13.82;8.40;;;;;;;;;;5014911;28;20444;-71
2023/04/16 02:56:55;;;;;;;15.52;7.32;;;;;;;;;;5012719;28;20513;-72
2023/04/16 02:59:21;;;;;;;9.57;6.78;;;;;;;;;;5010545;28;20436;-71
2023/04/16 03:01:46;;;;;;;14.75;10.95;;;;;;;;;;5011516;28;20317;-72
2023/04/16 03:04:11;;;;;;;21.38;14.70;;;;;;;;;;5012005;28;20060;-72
2023/04/16 03:06:37;;;;;;;25.63;16.60;;;;;;;;;;5012272;28;20034;-75
2023/04/16 03:09:02;;;;;;;17.73;13.35;;;;;;;;;;5015663;28;20041;-72
2023/04/16 03:11:27;;;;;;;22.13;15.05;;;;;;;;;;5013058;28;20022;-73
2023/04/16 03:13:53;;;;;;;26.38;17.38;;;;;;;;;;5013139;28;21233;-74
2023/04/16 03:16:18;;;;;;;19.50;12.18;;;;;;;;;;5008950;28;20437;-73
2023/04/16 03:18:44;;;;;;;31.00;22.52;;;;;;;;;;5012867;28;20036;-72
2023/04/16 03:21:09;;;;;;;29.48;19.48;;;;;;;;;;5002252;28;20044;-72
2023/04/16 03:23:35;;;;;;;28.92;19.70;;;;;;;;;;5010825;28;20032;-73
2023/04/16 03:26:00;;;;;;;37.53;25.77;;;;;;;;;;5009353;28;20128;-72
2023/04/16 03:28:26;;;;;;;50.10;33.30;;;;;;;;;;5014342;28;20136;-72
2023/04/16 03:30:51;;;;;;;55.40;36.53;;;;;;;;;;5009905;28;20049;-74
2023/04/16 03:33:17;;;;;;;45.70;29.67;;;;;;;;;;5011662;28;20073;-74
2023/04/16 03:35:42;;;;;;;50.97;34.88;;;;;;;;;;5012947;28;20318;-72
2023/04/16 03:38:08;;;;;;;52.55;34.20;;;;;;;;;;5015608;28;20030;-71
2023/04/16 03:40:33;;;;;;;49.72;31.48;;;;;;;;;;4999252;28;20030;-76
2023/04/16 03:42:58;;;;;;;39.50;26.80;;;;;;;;;;5009480;28;20051;-72
2023/04/16 03:45:24;;;;;;;47.08;28.88;;;;;;;;;;4999485;28;20036;-74
2023/04/16 03:47:51;;;;;;;30.80;21.52;;;;;;;;;;4997678;28;20065;-73
2023/04/16 03:50:19;;;;;;;27.27;16.27;;;;;;;;;;5000085;28;20406;-72
2023/04/16 03:52:45;;;;;;;29.50;20.63;;;;;;;;;;4997021;28;20348;-71
2023/04/16 03:55:11;;;;;;;33.33;23.42;;;;;;;;;;4996712;28;20033;-73
2023/04/16 03:57:37;;;;;;;28.33;20.23;;;;;;;;;;4996351;28;20033;-75
2023/04/16 04:00:03;;;;;;;34.10;24.92;;;;;;;;;;5002344;28;20504;-73
2023/04/16 04:02:28;;;;;;;28.73;20.27;;;;;;;;;;4998203;28;20086;-73
2023/04/16 04:04:53;;;;;;;20.60;14.65;;;;;;;;;;5000576;28;20030;-72
2023/04/16 04:07:19;;;;;;;21.00;13.23;;;;;;;;;;4997849;28;20036;-71
2023/04/16 04:09:44;;;;;;;15.45;13.40;;;;;;;;;;4999034;28;20074;-71
2023/04/16 04:12:10;;;;;;;17.25;14.02;;;;;;;;;;4997467;28;20057;-71
2023/04/16 04:14:38;;;;;;;18.00;11.30;;;;;;;;;;5000727;28;20034;-72
2023/04/16 04:17:07;;;;;;;16.35;11.05;;;;;;;;;;4997164;28;20025;-71
2023/04/16 04:19:33;;;;;;;23.60;19.03;;;;;;;;;;4999496;28;20136;-73
2023/04/16 04:21:58;;;;;;;25.15;20.02;;;;;;;;;;4997797;28;20112;-71
2023/04/16 04:24:24;;;;;;;22.33;18.05;;;;;;;;;;5000356;28;20053;-72
2023/04/16 04:26:49;;;;;;;11.52;10.10;;;;;;;;;;4996240;28;20021;-71
2023/04/16 04:29:14;;;;;;;11.52;9.30;;;;;;;;;;5000540;28;20128;-72
2023/04/16 04:31:40;;;;;;;15.35;10.13;;;;;;;;;;4994540;28;20210;-72
2023/04/16 04:34:05;;;;;;;11.65;8.13;;;;;;;;;;5009234;28;20085;-72
2023/04/16 04:36:31;;;;;;;19.08;13.68;;;;;;;;;;5007386;28;20104;-74
2023/04/16 04:38:56;;;;;;;33.67;27.60;;;;;;;;;;5012866;28;20034;-72
2023/04/16 04:41:22;;;;;;;33.00;23.38;;;;;;;;;;5011560;28;20105;-72
2023/04/16 04:43:48;;;;;;;35.80;27.73;;;;;;;;;;5013925;28;20030;-72
2023/04/16 04:46:13;;;;;;;52.00;35.35;;;;;;;;;;5004238;28;20044;-72
2023/04/16 04:48:38;;;;;;;57.40;41.53;;;;;;;;;;5007968;28;20120;-73
2023/04/16 04:51:04;;;;;;;49.75;39.25;;;;;;;;;;5011350;28;20123;-71
2023/04/16 04:53:29;;;;;;;76.70;53.20;;;;;;;;;;5005834;28;20451;-72
2023/04/16 04:55:55;;;;;;;83.07;54.55;;;;;;;;;;5008649;28;20026;-74
2023/04/16 04:58:20;;;;;;;62.50;45.47;;;;;;;;;;5001280;28;20110;-72
2023/04/16 05:00:45;;;;;;;64.75;43.92;;;;;;;;;;4998790;28;20030;-72
2023/04/16 05:03:11;;;;;;;79.28;54.35;;;;;;;;;;5000661;28;20110;-74
2023/04/16 05:05:37;;;;;;;66.30;45.42;;;;;;;;;;5000999;28;20022;-72
2023/04/16 05:08:03;;;;;;;56.65;44.63;;;;;;;;;;4999941;28;20045;-72
2023/04/16 05:10:28;;;;;;;45.10;33.67;;;;;;;;;;5001152;28;20022;-72
2023/04/16 05:12:53;;;;;;;44.90;32.60;;;;;;;;;;5003196;28;20030;-72
2023/04/16 05:15:19;;;;;;;46.80;32.63;;;;;;;;;;5007945;28;20485;-73
2023/04/16 05:17:44;;;;;;;51.20;35.15;;;;;;;;;;4999509;28;20025;-72
2023/04/16 05:20:10;;;;;;;60.35;37.63;;;;;;;;;;5001780;28;20046;-73
2023/04/16 05:22:35;;;;;;;64.75;39.92;;;;;;;;;;5001603;28;20037;-71
2023/04/16 05:25:01;;;;;;;53.67;36.65;;;;;;;;;;5004225;28;20082;-75
2023/04/16 05:27:26;;;;;;;78.70;51.10;;;;;;;;;;5002205;28;20045;-73
2023/04/16 05:29:51;;;;;;;80.57;57.13;;;;;;;;;;5004856;28;20037;-72
2023/04/16 05:32:17;;;;;;;73.38;53.42;;;;;;;;;;5008530;28;20041;-72
2023/04/16 05:34:42;;;;;;;64.63;47.75;;;;;;;;;;5006462;28;20017;-72
2023/04/16 05:37:07;;;;;;;49.50;37.65;;;;;;;;;;5001922;28;20460;-72
2023/04/16 05:39:32;;;;;;;52.78;41.05;;;;;;;;;;5010668;28;20108;-72
2023/04/16 05:41:58;;;;;;;38.15;29.83;;;;;;;;;;5002100;28;20056;-72
2023/04/16 05:44:24;;;;;;;33.00;26.33;;;;;;;;;;5005249;28;20044;-72
2023/04/16 05:46:50;;;;;;;35.50;26.02;;;;;;;;;;5001490;28;20165;-74
2023/04/16 05:49:17;;;;;;;39.92;29.02;;;;;;;;;;5008442;28;20547;-75
2023/04/16 05:51:42;;;;;;;42.33;31.95;;;;;;;;;;4998013;28;20195;-74
2023/04/16 05:54:08;;;;;;;53.05;37.90;;;;;;;;;;5004023;28;20464;-71
2023/04/16 05:56:33;;;;;;;55.78;40.55;;;;;;;;;;5003097;28;20068;-71
2023/04/16 05:58:58;;;;;;;51.30;36.92;;;;;;;;;;5006443;28;20037;-74
2023/04/16 06:01:24;;;;;;;52.38;38.63;;;;;;;;;;5001982;28;20052;-73
2023/04/16 06:03:49;;;;;;;50.10;35.83;;;;;;;;;;5003689;28;20105;-72
2023/04/16 06:06:15;;;;;;;41.10;29.95;;;;;;;;;;4998001;28;20506;-73
2023/04/16 06:08:40;;;;;;;38.13;28.50;;;;;;;;;;5001401;28;20072;-72
2023/04/16 06:11:05;;;;;;;47.25;33.65;;;;;;;;;;5004359;28;20103;-72
2023/04/16 06:13:31;;;;;;;36.55;26.92;;;;;;;;;;5008146;28;20047;-70
2023/04/16 06:15:56;;;;;;;34.10;25.83;;;;;;;;;;5001248;28;20083;-71
2023/04/16 06:18:21;;;;;;;46.35;35.78;;;;;;;;;;5011103;28;20038;-71
2023/04/16 06:20:47;;;;;;;54.47;41.58;;;;;;;;;;5007525;28;20036;-74
2023/04/16 06:23:12;;;;;;;74.75;56.95;;;;;;;;;;5002595;28;20041;-72
2023/04/16 06:25:37;;;;;;;113.45;83.68;;;;;;;;;;5005302;28;20083;-75
2023/04/16 06:28:03;;;;;;;105.63;79.28;;;;;;;;;;5009469;28;20525;-74
2023/04/16 06:30:28;;;;;;;90.90;65.07;;;;;;;;;;5009372;28;20037;-73
2023/04/16 06:32:54;;;;;;;66.60;50.03;;;;;;;;;;4998948;28;20391;-72
2023/04/16 06:35:19;;;;;;;49.22;37.95;;;;;;;;;;5007658;28;20044;-73
2023/04/16 06:37:45;;;;;;;29.25;22.80;;;;;;;;;;5005440;28;20432;-72
2023/04/16 06:40:10;;;;;;;28.45;22.90;;;;;;;;;;5009964;28;20068;-72
2023/04/16 06:42:36;;;;;;;26.60;23.23;;;;;;;;;;5008078;28;20021;-72
2023/04/16 06:45:01;;;;;;;35.78;28.33;;;;;;;;;;5004958;28;20074;-72
2023/04/16 06:47:27;;;;;;;35.55;23.90;;;;;;;;;;5006754;28;20465;-73
2023/04/16 06:49:52;;;;;;;26.33;15.48;;;;;;;;;;5002194;28;20032;-72
2023/04/16 06:52:17;;;;;;;15.65;10.90;;;;;;;;;;4993742;28;20096;-72
2023/04/16 06:54:43;;;;;;;13.35;8.25;;;;;;;;;;5001611;28;20116;-71
2023/04/16 06:57:08;;;;;;;11.50;7.35;;;;;;;;;;4997828;28;20398;-70
2023/04/16 06:59:33;;;;;;;6.93;4.72;;;;;;;;;;4999706;28;20041;-71
2023/04/16 07:01:59;;;;;;;7.15;5.28;;;;;;;;;;4994801;28;20113;-71
2023/04/16 07:04:24;;;;;;;9.43;5.40;;;;;;;;;;4998972;28;20025;-71
2023/04/16 07:06:50;;;;;;;6.90;5.00;;;;;;;;;;5002649;28;20026;-72
2023/04/16 07:09:19;;;;;;;11.73;5.32;;;;;;;;;;4993478;28;21277;-72
2023/04/16 07:11:44;;;;;;;8.25;6.18;;;;;;;;;;4996270;28;20034;-71
2023/04/16 07:14:10;;;;;;;10.32;8.10;;;;;;;;;;5002267;28;20044;-72
2023/04/16 07:16:36;;;;;;;9.57;6.40;;;;;;;;;;5005565;28;20459;-75
2023/04/16 07:19:01;;;;;;;10.80;7.38;;;;;;;;;;5004393;28;20033;-73
2023/04/16 07:21:27;;;;;;;9.60;7.25;;;;;;;;;;5006475;28;20033;-74
2023/04/16 07:23:52;;;;;;;13.27;11.50;;;;;;;;;;5007862;28;20057;-75
2023/04/16 07:26:18;;;;;;;12.48;8.60;;;;;;;;;;4998373;28;21161;-75
2023/04/16 07:28:43;;;;;;;14.07;10.30;;;;;;;;;;5001808;28;20053;-73
2023/04/16 07:31:08;;;;;;;9.77;6.18;;;;;;;;;;4998445;28;20034;-68
2023/04/16 07:33:34;;;;;;;7.32;6.60;;;;;;;;;;5007313;28;20022;-69
2023/04/16 07:35:59;;;;;;;8.80;6.60;;;;;;;;;;5007888;28;20029;-71
2023/04/16 07:38:25;;;;;;;9.13;7.15;;;;;;;;;;5009152;28;20091;-71
2023/04/16 07:40:50;;;;;;;12.07;8.77;;;;;;;;;;5014855;28;20155;-70
2023/04/16 07:43:15;;;;;;;10.45;7.47;;;;;;;;;;5003205;28;20030;-74
2023/04/16 07:45:41;;;;;;;10.27;7.50;;;;;;;;;;5004261;28;20512;-72
2023/04/16 07:48:06;;;;;;;14.13;9.52;;;;;;;;;;5000283;28;20037;-75
2023/04/16 07:50:31;;;;;;;10.68;7.93;;;;;;;;;;5000080;28;20032;-71
2023/04/16 07:52:57;;;;;;;10.30;7.38;;;;;;;;;;4996190;28;20040;-72
2023/04/16 07:55:22;;;;;;;10.35;7.82;;;;;;;;;;5001240;28;20439;-71
2023/04/16 07:57:48;;;;;;;8.30;6.60;;;;;;;;;;5000788;28;20032;-74
2023/04/16 08:00:13;;;;;;;31.90;24.60;;;;;;;;;;5009124;28;20040;-70
2023/04/16 08:02:39;;;;;;;11.55;7.82;;;;;;;;;;5010236;28;20352;-73
2023/04/16 08:05:05;;;;;;;9.30;6.88;;;;;;;;;;5008477;28;20130;-71
2023/04/16 08:07:30;;;;;;;14.40;10.00;;;;;;;;;;5007151;28;20029;-72
2023/04/16 08:09:55;;;;;;;10.50;7.72;;;;;;;;;;5006244;28;20021;-71
2023/04/16 08:12:21;;;;;;;10.27;7.80;;;;;;;;;;5008158;28;20703;-71
2023/04/16 08:14:47;;;;;;;9.30;7.05;;;;;;;;;;5012924;28;20065;-71
2023/04/16 08:17:12;;;;;;;13.20;7.13;;;;;;;;;;5009026;28;20030;-71
2023/04/16 08:19:38;;;;;;;11.38;6.70;;;;;;;;;;5000671;28;20468;-71
2023/04/16 08:22:03;;;;;;;9.10;6.80;;;;;;;;;;5003715;28;20033;-70
2023/04/16 08:24:29;;;;;;;14.40;12.85;;;;;;;;;;5000926;28;20037;-73
2023/04/16 08:26:54;;;;;;;7.43;6.63;;;;;;;;;;4992722;28;20029;-72
2023/04/16 08:29:20;;;;;;;9.77;5.75;;;;;;;;;;4996620;28;20368;-74
2023/04/16 08:31:45;;;;;;;5.47;4.53;;;;;;;;;;4997260;28;20026;-71
2023/04/16 08:34:11;;;;;;;4.80;4.30;;;;;;;;;;5005065;28;20030;-71
2023/04/16 08:36:36;;;;;;;7.45;4.82;;;;;;;;;;4992942;28;20034;-71
2023/04/16 08:39:02;;;;;;;4.45;3.10;;;;;;;;;;4996525;28;20185;-73
2023/04/16 08:41:29;;;;;;;10.40;5.80;;;;;;;;;;4995590;28;20052;-71
2023/04/16 08:43:55;;;;;;;8.35;6.40;;;;;;;;;;4994346;28;20022;-72
2023/04/16 08:46:23;;;;;;;6.05;4.75;;;;;;;;;;4994841;28;20122;-72
2023/04/16 08:48:51;;;;;;;5.35;4.50;;;;;;;;;;4993111;28;20033;-75
2023/04/16 08:51:18;;;;;;;6.22;4.45;;;;;;;;;;4999306;28;20044;-73
2023/04/16 08:53:57;;;;;;;6.50;4.30;;;;;;;;;;4993859;28;20022;-72
2023/04/16 08:56:23;;;;;;;5.73;4.63;;;;;;;;;;4998629;28;20029;-73
2023/04/16 08:58:49;;;;;;;5.47;4.22;;;;;;;;;;5010160;28;20441;-72
2023/04/16 09:01:16;;;;;;;6.85;5.28;;;;;;;;;;5005376;28;20014;-73
2023/04/16 09:03:43;;;;;;;4.10;3.70;;;;;;;;;;5003640;28;20021;-73
2023/04/16 09:06:08;;;;;;;6.28;4.13;;;;;;;;;;5004105;28;20068;-73
2023/04/16 09:08:34;;;;;;;9.00;4.60;;;;;;;;;;5011628;28;20485;-75
2023/04/16 09:11:00;;;;;;;5.75;4.93;;;;;;;;;;5011572;28;20064;-75
2023/04/16 09:13:25;;;;;;;12.38;9.90;;;;;;;;;;4999735;28;20033;-73
2023/04/16 09:15:55;;;;;;;10.50;7.90;;;;;;;;;;5000923;28;23668;-74
2023/04/16 09:18:21;;;;;;;6.70;4.45;;;;;;;;;;5010092;28;20718;-73
2023/04/16 09:20:50;;;;;;;7.22;5.57;;;;;;;;;;5010771;28;20062;-73
2023/04/16 09:23:16;;;;;;;5.80;4.10;;;;;;;;;;5011198;28;20067;-72
2023/04/16 09:25:41;;;;;;;10.52;7.22;;;;;;;;;;5013354;28;20061;-71
2023/04/16 09:28:06;;;;;;;6.03;4.60;;;;;;;;;;5013145;28;20052;-71
2023/04/16 09:30:33;;;;;;;7.75;4.57;;;;;;;;;;5012365;28;20033;-72
2023/04/16 09:33:14;;;;;;;5.60;5.00;;;;;;;;;;5010612;28;20132;-75
2023/04/16 09:35:46;;;;;;;12.00;9.45;;;;;;;;;;5010888;28;20401;-74
2023/04/16 09:38:12;;;;;;;12.55;10.50;;;;;;;;;;5010281;28;20065;-73
2023/04/16 09:40:38;;;;;;;10.50;6.32;;;;;;;;;;5010411;28;21392;-73
2023/04/16 09:43:10;;;;;;;4.20;3.50;;;;;;;;;;5011959;28;20064;-72
2023/04/16 09:45:47;;;;;;;6.38;5.03;;;;;;;;;;5009266;28;20440;-73
2023/04/16 09:48:12;;;;;;;7.97;6.97;;;;;;;;;;5010620;28;20457;-72
2023/04/16 09:50:37;;;;;;;8.95;6.47;;;;;;;;;;5012811;28;20032;-72
2023/04/16 09:53:03;;;;;;;6.50;5.90;;;;;;;;;;5010961;28;20029;-75
2023/04/16 09:55:28;;;;;;;7.22;4.70;;;;;;;;;;5012304;28;20026;-72
2023/04/16 09:58:00;;;;;;;9.55;4.90;;;;;;;;;;5012520;28;20187;-74
2023/04/16 10:00:27;;;;;;;6.50;5.65;;;;;;;;;;5011867;28;20029;-75
2023/04/16 10:03:03;;;;;;;8.27;6.72;;;;;;;;;;5012573;28;20070;-74
2023/04/16 10:05:28;;;;;;;5.55;4.47;;;;;;;;;;5008089;28;20212;-74
2023/04/16 10:07:58;;;;;;;6.05;4.10;;;;;;;;;;5010579;28;20364;-73
2023/04/16 10:10:24;;;;;;;7.07;4.13;;;;;;;;;;5010811;28;20049;-73
2023/04/16 10:12:49;;;;;;;4.75;3.55;;;;;;;;;;5008621;28;20504;-73
2023/04/16 10:15:15;;;;;;;5.10;3.53;;;;;;;;;;5014814;28;20068;-73
2023/04/16 10:17:41;;;;;;;6.32;4.28;;;;;;;;;;5011681;28;20030;-73
2023/04/16 10:20:07;;;;;;;3.60;2.80;;;;;;;;;;5012574;28;20173;-75
2023/04/16 10:22:32;;;;;;;5.00;3.42;;;;;;;;;;5011954;28;20513;-72
2023/04/16 10:24:58;;;;;;;8.45;5.25;;;;;;;;;;5011976;28;20029;-75
2023/04/16 10:27:24;;;;;;;5.88;5.28;;;;;;;;;;5011215;28;20049;-72
2023/04/16 10:29:50;;;;;;;4.90;4.32;;;;;;;;;;5011613;28;20139;-72
2023/04/16 10:32:16;;;;;;;7.30;5.25;;;;;;;;;;5014890;28;20437;-74
2023/04/16 10:34:43;;;;;;;4.47;4.07;;;;;;;;;;5010487;28;20033;-72
2023/04/16 10:37:08;;;;;;;6.60;4.88;;;;;;;;;;5012612;28;20036;-72
2023/04/16 10:39:36;;;;;;;6.40;4.65;;;;;;;;;;5012288;28;20026;-73
2023/04/16 10:42:11;;;;;;;8.70;5.65;;;;;;;;;;5011022;28;20382;-72
2023/04/16 10:44:36;;;;;;;7.20;5.53;;;;;;;;;;5009677;28;20018;-72
2023/04/16 10:47:02;;;;;;;8.15;5.65;;;;;;;;;;5011805;28;20330;-72
2023/04/16 10:49:27;;;;;;;9.07;4.75;;;;;;;;;;5011395;28;20048;-73
2023/04/16 10:51:57;;;;;;;8.10;5.50;;;;;;;;;;5013802;28;20065;-73
2023/04/16 10:54:24;;;;;;;6.90;5.18;;;;;;;;;;5012559;28;20064;-72
2023/04/16 10:56:50;;;;;;;12.48;4.97;;;;;;;;;;5012631;28;20083;-72
2023/04/16 10:59:19;;;;;;;5.00;4.03;;;;;;;;;;5013636;28;20033;-73
2023/04/16 11:01:46;;;;;;;5.70;4.95;;;;;;;;;;5012004;28;20053;-74
2023/04/16 11:04:20;;;;;;;5.20;4.07;;;;;;;;;;5008310;28;21106;-73
2023/04/16 11:07:15;;;;;;;8.32;7.53;;;;;;;;;;5010484;28;20053;-75
2023/04/16 11:09:46;;;;;;;5.65;3.78;;;;;;;;;;5013676;28;20056;-73
2023/04/16 11:12:13;;;;;;;3.40;2.72;;;;;;;;;;5014597;28;20033;-73
2023/04/16 11:14:41;;;;;;;3.55;3.10;;;;;;;;;;5014776;28;20038;-72
2023/04/16 11:17:07;;;;;;;8.27;3.67;;;;;;;;;;5013363;28;20025;-74
2023/04/16 11:19:34;;;;;;;6.80;4.90;;;;;;;;;;5014341;28;20037;-73
2023/04/16 11:22:01;;;;;;;6.47;3.80;;;;;;;;;;5015746;28;20078;-73
2023/04/16 11:24:30;;;;;;;4.22;3.75;;;;;;;;;;5011121;28;20139;-72
2023/04/16 11:26:56;;;;;;;6.30;3.80;;;;;;;;;;5013775;28;20070;-72
2023/04/16 11:29:21;;;;;;;6.43;3.92;;;;;;;;;;5015623;28;20128;-73
2023/04/16 11:31:50;;;;;;;4.65;3.97;;;;;;;;;;5015115;28;20069;-73
2023/04/16 11:34:16;;;;;;;5.63;4.80;;;;;;;;;;5014950;28;20445;-72
2023/04/16 11:36:42;;;;;;;5.97;4.10;;;;;;;;;;5011605;28;20030;-72
2023/04/16 11:39:08;;;;;;;4.65;3.53;;;;;;;;;;5013770;28;20072;-72
2023/04/16 11:41:33;;;;;;;4.68;3.45;;;;;;;;;;5013002;28;20420;-73
2023/04/16 11:43:58;;;;;;;5.15;3.60;;;;;;;;;;5014469;28;20025;-75
2023/04/16 11:46:36;;;;;;;3.85;2.75;;;;;;;;;;5011950;28;20105;-74
2023/04/16 11:49:01;;;;;;;3.72;2.70;;;;;;;;;;5013338;28;20477;-74
2023/04/16 11:51:28;;;;;;;6.97;4.22;;;;;;;;;;5011161;28;20033;-73
2023/04/16 11:53:54;;;;;;;5.65;3.35;;;;;;;;;;5012430;28;20460;-74
2023/04/16 11:56:27;;;;;;;4.72;3.33;;;;;;;;;;5011804;28;20030;-72
2023/04/16 11:59:25;;;;;;;3.60;3.30;;;;;;;;;;5014199;28;20781;-71
2023/04/16 12:01:51;;;;;;;4.35;3.65;;;;;;;;;;5054725;28;20044;-73
2023/04/16 12:04:23;;;;;;;5.47;3.05;;;;;;;;;;5056738;28;20098;-74
2023/04/16 12:07:04;;;;;;;6.18;2.97;;;;;;;;;;5054618;28;20032;-72
2023/04/16 12:09:30;;;;;;;4.45;3.90;;;;;;;;;;5054377;28;20043;-73
2023/04/16 12:11:55;;;;;;;3.58;2.78;;;;;;;;;;5055839;28;20036;-72
2023/04/16 12:14:21;;;;;;;6.45;3.83;;;;;;;;;;5055997;28;20037;-75
2023/04/16 12:16:47;;;;;;;3.45;2.63;;;;;;;;;;5054968;28;20333;-73
2023/04/16 12:19:12;;;;;;;4.05;2.90;;;;;;;;;;5054758;28;20058;-72
2023/04/16 12:21:42;;;;;;;4.40;3.30;;;;;;;;;;5054162;28;20045;-73
2023/04/16 12:24:07;;;;;;;;;;;;;;;;;;5037624;28;20097;-73
2023/04/16 12:26:42;;;;;;;4.40;3.43;;;;;;;;;;5056397;28;19918;-74
2023/04/16 12:29:17;;;;;;;4.47;2.58;;;;;;;;;;5054761;28;20052;-75
2023/04/16 12:31:43;;;;;;;3.03;2.78;;;;;;;;;;5055389;28;20123;-73
2023/04/16 12:34:09;;;;;;;4.47;2.33;;;;;;;;;;5054375;28;20135;-73
2023/04/16 12:36:34;;;;;;;4.00;3.45;;;;;;;;;;5049876;28;20454;-73
2023/04/16 12:39:00;;;;;;;4.85;2.65;;;;;;;;;;5014202;28;20025;-74
2023/04/16 12:41:25;;;;;;;4.30;2.90;;;;;;;;;;5012316;28;20508;-72
2023/04/16 12:43:50;;;;;;;3.60;2.97;;;;;;;;;;5011216;28;20040;-73
2023/04/16 12:46:16;;;;;;;6.63;3.45;;;;;;;;;;5014406;28;20036;-73
2023/04/16 12:48:42;;;;;;;4.57;2.80;;;;;;;;;;5011884;28;20038;-72
2023/04/16 12:51:07;;;;;;;8.20;4.18;;;;;;;;;;5012995;28;20034;-73
2023/04/16 12:53:33;;;;;;;6.97;4.78;;;;;;;;;;5013987;28;20640;-73
2023/04/16 12:55:59;;;;;;;6.65;5.55;;;;;;;;;;5010439;28;20163;-73
2023/04/16 12:58:25;;;;;;;7.47;5.22;;;;;;;;;;5015183;28;20180;-75
2023/04/16 13:00:50;;;;;;;6.70;4.45;;;;;;;;;;5012827;28;20036;-73
2023/04/16 13:03:15;;;;;;;8.50;5.90;;;;;;;;;;5013558;28;20093;-73
2023/04/16 13:05:41;;;;;;;9.20;5.28;;;;;;;;;;5011120;28;20013;-73
2023/04/16 13:08:06;;;;;;;7.10;5.18;;;;;;;;;;5012591;28;20062;-73
2023/04/16 13:10:32;;;;;;;5.10;4.00;;;;;;;;;;5013305;28;20021;-73
2023/04/16 13:12:57;;;;;;;5.38;3.70;;;;;;;;;;5012827;28;20030;-73
2023/04/16 13:15:22;;;;;;;7.20;6.35;;;;;;;;;;5014059;28;20123;-73
2023/04/16 13:17:47;;;;;;;5.07;4.00;;;;;;;;;;5011850;28;20053;-74
2023/04/16 13:20:13;;;;;;;5.28;4.22;;;;;;;;;;5011268;28;22433;-73
2023/04/16 13:22:38;;;;;;;5.25;4.78;;;;;;;;;;5013286;28;20065;-73
2023/04/16 13:25:04;;;;;;;5.10;4.65;;;;;;;;;;5012988;28;20022;-74
2023/04/16 13:27:30;;;;;;;9.07;7.72;;;;;;;;;;5013509;28;20052;-74
2023/04/16 13:29:56;;;;;;;5.55;4.38;;;;;;;;;;5011987;28;20040;-73
2023/04/16 13:32:21;;;;;;;6.30;4.78;;;;;;;;;;5011782;28;20029;-73
2023/04/16 13:34:46;;;;;;;7.68;6.00;;;;;;;;;;5011734;28;20034;-75
2023/04/16 13:37:12;;;;;;;4.40;3.72;;;;;;;;;;5013469;28;20030;-73
2023/04/16 13:39:37;;;;;;;4.70;3.25;;;;;;;;;;5013193;28;20124;-73
2023/04/16 13:42:03;;;;;;;5.45;3.65;;;;;;;;;;5010781;28;20495;-73
2023/04/16 13:44:28;;;;;;;5.00;3.13;;;;;;;;;;5013125;28;20072;-72
2023/04/16 13:46:53;;;;;;;4.60;3.40;;;;;;;;;;5012587;28;20085;-72
2023/04/16 13:49:19;;;;;;;5.65;2.90;;;;;;;;;;5010953;28;20090;-71
2023/04/16 13:51:44;;;;;;;5.05;3.67;;;;;;;;;;5014490;28;20033;-74
2023/04/16 13:54:09;;;;;;;5.00;3.53;;;;;;;;;;5011917;28;20021;-72
2023/04/16 13:56:35;;;;;;;5.45;4.00;;;;;;;;;;5014879;28;20069;-72
2023/04/16 13:59:00;;;;;;;4.68;3.78;;;;;;;;;;5011338;28;20034;-72
2023/04/16 14:01:25;;;;;;;4.97;3.40;;;;;;;;;;5013311;28;20465;-75
2023/04/16 14:03:51;;;;;;;6.75;3.85;;;;;;;;;;5013874;28;20037;-72
2023/04/16 14:06:17;;;;;;;5.55;3.80;;;;;;;;;;5012487;28;20093;-73
2023/04/16 14:08:42;;;;;;;5.13;3.53;;;;;;;;;;5012251;28;21039;-73
2023/04/16 14:11:08;;;;;;;8.38;3.00;;;;;;;;;;5013785;28;20025;-72
2023/04/16 14:13:33;;;;;;;2.35;2.15;;;;;;;;;;5012272;28;20349;-72
2023/04/16 14:15:58;;;;;;;5.45;2.85;;;;;;;;;;5011916;28;20124;-72
2023/04/16 14:18:24;;;;;;;5.55;3.47;;;;;;;;;;5011270;28;20030;-72
2023/04/16 14:20:49;;;;;;;20.08;12.15;;;;;;;;;;5013947;28;20020;-71
2023/04/16 14:23:14;;;;;;;7.05;5.93;;;;;;;;;;5013100;28;20413;-74